sensor_id;sensor_type;location;lat;lon;timestamp;temperature;humidity
8994;DHT22;4532;50.886;4.700;2023-05-29T00:00:50;18.80;92.70
8994;DHT22;4532;50.886;4.700;2023-05-29T00:03:23;18.80;93.00
8994;DHT22;4532;50.886;4.700;2023-05-29T00:05:51;18.70;93.30
8994;DHT22;4532;50.886;4.700;2023-05-29T00:08:23;18.70;93.00
8994;DHT22;4532;50.886;4.700;2023-05-29T00:10:50;18.60;92.90
8994;DHT22;4532;50.886;4.700;2023-05-29T00:13:20;18.60;93.10
8994;DHT22;4532;50.886;4.700;2023-05-29T00:15:47;18.50;93.40
8994;DHT22;4532;50.886;4.700;2023-05-29T00:18:16;18.50;93.30
8994;DHT22;4532;50.886;4.700;2023-05-29T00:20:48;18.40;93.00
8994;DHT22;4532;50.886;4.700;2023-05-29T00:23:16;18.40;93.30
8994;DHT22;4532;50.886;4.700;2023-05-29T00:25:43;18.30;93.30
8994;DHT22;4532;50.886;4.700;2023-05-29T00:28:15;18.20;93.20
8994;DHT22;4532;50.886;4.700;2023-05-29T00:30:47;18.20;93.00
8994;DHT22;4532;50.886;4.700;2023-05-29T00:33:17;18.20;92.80
8994;DHT22;4532;50.886;4.700;2023-05-29T00:35:45;18.10;93.00
8994;DHT22;4532;50.886;4.700;2023-05-29T00:38:12;18.10;93.10
8994;DHT22;4532;50.886;4.700;2023-05-29T00:40:42;18.10;93.10
8994;DHT22;4532;50.886;4.700;2023-05-29T00:43:09;18.00;93.40
8994;DHT22;4532;50.886;4.700;2023-05-29T00:45:36;18.00;93.40
8994;DHT22;4532;50.886;4.700;2023-05-29T00:48:07;17.90;94.00
8994;DHT22;4532;50.886;4.700;2023-05-29T00:50:37;17.90;93.90
8994;DHT22;4532;50.886;4.700;2023-05-29T00:53:10;17.80;93.90
8994;DHT22;4532;50.886;4.700;2023-05-29T00:55:37;17.70;93.60
8994;DHT22;4532;50.886;4.700;2023-05-29T00:58:07;17.60;94.20
8994;DHT22;4532;50.886;4.700;2023-05-29T01:00:37;17.60;94.10
8994;DHT22;4532;50.886;4.700;2023-05-29T01:03:06;17.50;94.10
8994;DHT22;4532;50.886;4.700;2023-05-29T01:05:36;17.40;94.40
8994;DHT22;4532;50.886;4.700;2023-05-29T01:08:04;17.40;94.00
8994;DHT22;4532;50.886;4.700;2023-05-29T01:10:34;17.30;95.40
8994;DHT22;4532;50.886;4.700;2023-05-29T01:13:23;17.30;94.30
8994;DHT22;4532;50.886;4.700;2023-05-29T01:16:07;17.30;94.30
8994;DHT22;4532;50.886;4.700;2023-05-29T01:18:51;17.20;94.30
8994;DHT22;4532;50.886;4.700;2023-05-29T01:21:35;17.20;94.80
8994;DHT22;4532;50.886;4.700;2023-05-29T01:24:14;17.10;94.30
8994;DHT22;4532;50.886;4.700;2023-05-29T01:29:19;17.00;94.40
8994;DHT22;4532;50.886;4.700;2023-05-29T01:31:50;17.00;94.90
8994;DHT22;4532;50.886;4.700;2023-05-29T01:34:18;17.00;94.20
8994;DHT22;4532;50.886;4.700;2023-05-29T01:36:48;16.90;94.50
8994;DHT22;4532;50.886;4.700;2023-05-29T01:39:16;16.90;94.80
8994;DHT22;4532;50.886;4.700;2023-05-29T01:41:48;16.80;94.20
8994;DHT22;4532;50.886;4.700;2023-05-29T01:44:17;16.80;95.00
8994;DHT22;4532;50.886;4.700;2023-05-29T01:46:45;16.70;94.60
8994;DHT22;4532;50.886;4.700;2023-05-29T01:49:13;16.70;94.50
8994;DHT22;4532;50.886;4.700;2023-05-29T01:51:46;16.70;95.30
8994;DHT22;4532;50.886;4.700;2023-05-29T01:54:16;16.60;94.80
8994;DHT22;4532;50.886;4.700;2023-05-29T01:56:46;16.60;94.80
8994;DHT22;4532;50.886;4.700;2023-05-29T01:59:22;16.50;95.00
8994;DHT22;4532;50.886;4.700;2023-05-29T02:01:49;16.50;94.80
8994;DHT22;4532;50.886;4.700;2023-05-29T02:04:19;16.50;95.00
8994;DHT22;4532;50.886;4.700;2023-05-29T02:06:48;16.40;96.10
8994;DHT22;4532;50.886;4.700;2023-05-29T02:09:17;16.40;95.50
8994;DHT22;4532;50.886;4.700;2023-05-29T02:11:44;16.30;95.90
8994;DHT22;4532;50.886;4.700;2023-05-29T02:14:12;16.20;94.80
8994;DHT22;4532;50.886;4.700;2023-05-29T02:16:43;16.20;95.80
8994;DHT22;4532;50.886;4.700;2023-05-29T02:19:12;16.20;95.60
8994;DHT22;4532;50.886;4.700;2023-05-29T02:21:39;16.20;95.20
8994;DHT22;4532;50.886;4.700;2023-05-29T02:24:15;16.10;95.40
8994;DHT22;4532;50.886;4.700;2023-05-29T02:26:48;16.10;95.50
8994;DHT22;4532;50.886;4.700;2023-05-29T02:29:19;16.00;96.00
8994;DHT22;4532;50.886;4.700;2023-05-29T02:31:49;16.00;95.60
8994;DHT22;4532;50.886;4.700;2023-05-29T02:34:18;15.90;95.50
8994;DHT22;4532;50.886;4.700;2023-05-29T02:36:49;16.00;95.40
8994;DHT22;4532;50.886;4.700;2023-05-29T02:39:16;15.90;95.40
8994;DHT22;4532;50.886;4.700;2023-05-29T02:41:46;15.90;95.20
8994;DHT22;4532;50.886;4.700;2023-05-29T02:44:16;15.90;95.60
8994;DHT22;4532;50.886;4.700;2023-05-29T02:46:43;15.80;95.80
8994;DHT22;4532;50.886;4.700;2023-05-29T02:49:10;15.80;96.20
8994;DHT22;4532;50.886;4.700;2023-05-29T02:51:38;15.70;95.80
8994;DHT22;4532;50.886;4.700;2023-05-29T02:54:07;15.70;95.60
8994;DHT22;4532;50.886;4.700;2023-05-29T02:56:37;15.50;96.20
8994;DHT22;4532;50.886;4.700;2023-05-29T02:59:06;15.50;95.70
8994;DHT22;4532;50.886;4.700;2023-05-29T03:01:36;15.40;96.20
8994;DHT22;4532;50.886;4.700;2023-05-29T03:04:06;15.40;95.70
8994;DHT22;4532;50.886;4.700;2023-05-29T03:06:36;15.30;95.70
8994;DHT22;4532;50.886;4.700;2023-05-29T03:09:05;15.30;95.10
8994;DHT22;4532;50.886;4.700;2023-05-29T03:11:39;15.30;95.40
8994;DHT22;4532;50.886;4.700;2023-05-29T03:14:08;15.20;95.40
8994;DHT22;4532;50.886;4.700;2023-05-29T03:16:35;15.20;94.80
8994;DHT22;4532;50.886;4.700;2023-05-29T03:19:05;15.20;94.70
8994;DHT22;4532;50.886;4.700;2023-05-29T03:21:33;15.20;95.20
8994;DHT22;4532;50.886;4.700;2023-05-29T03:24:05;15.20;94.70
8994;DHT22;4532;50.886;4.700;2023-05-29T03:26:38;15.20;94.60
8994;DHT22;4532;50.886;4.700;2023-05-29T03:29:05;15.20;95.00
8994;DHT22;4532;50.886;4.700;2023-05-29T03:31:39;15.10;94.90
8994;DHT22;4532;50.886;4.700;2023-05-29T03:34:09;15.10;94.70
8994;DHT22;4532;50.886;4.700;2023-05-29T03:36:36;15.10;94.80
8994;DHT22;4532;50.886;4.700;2023-05-29T03:39:03;15.10;94.80
8994;DHT22;4532;50.886;4.700;2023-05-29T03:41:33;15.00;94.70
8994;DHT22;4532;50.886;4.700;2023-05-29T03:44:00;15.00;94.60
8994;DHT22;4532;50.886;4.700;2023-05-29T03:46:28;15.00;94.30
8994;DHT22;4532;50.886;4.700;2023-05-29T03:48:57;14.90;94.30
8994;DHT22;4532;50.886;4.700;2023-05-29T03:51:27;14.90;94.60
8994;DHT22;4532;50.886;4.700;2023-05-29T03:53:54;14.90;94.20
8994;DHT22;4532;50.886;4.700;2023-05-29T03:56:21;14.80;94.60
8994;DHT22;4532;50.886;4.700;2023-05-29T03:58:53;14.80;94.50
8994;DHT22;4532;50.886;4.700;2023-05-29T04:01:25;14.70;94.70
8994;DHT22;4532;50.886;4.700;2023-05-29T04:03:55;14.70;94.20
8994;DHT22;4532;50.886;4.700;2023-05-29T04:06:23;14.70;94.40
8994;DHT22;4532;50.886;4.700;2023-05-29T04:08:55;14.70;94.30
8994;DHT22;4532;50.886;4.700;2023-05-29T04:11:22;14.70;94.20
8994;DHT22;4532;50.886;4.700;2023-05-29T04:13:54;14.60;94.50
8994;DHT22;4532;50.886;4.700;2023-05-29T04:16:24;14.60;94.40
8994;DHT22;4532;50.886;4.700;2023-05-29T04:18:51;14.60;94.30
8994;DHT22;4532;50.886;4.700;2023-05-29T04:21:19;14.60;94.10
8994;DHT22;4532;50.886;4.700;2023-05-29T04:23:46;14.60;94.20
8994;DHT22;4532;50.886;4.700;2023-05-29T04:26:16;14.60;94.20
8994;DHT22;4532;50.886;4.700;2023-05-29T04:28:50;14.60;93.90
8994;DHT22;4532;50.886;4.700;2023-05-29T04:31:19;14.60;94.20
8994;DHT22;4532;50.886;4.700;2023-05-29T04:33:52;14.50;94.20
8994;DHT22;4532;50.886;4.700;2023-05-29T04:36:23;14.40;94.10
8994;DHT22;4532;50.886;4.700;2023-05-29T04:38:56;14.50;93.90
8994;DHT22;4532;50.886;4.700;2023-05-29T04:41:28;14.40;94.10
8994;DHT22;4532;50.886;4.700;2023-05-29T04:44:01;14.40;94.20
8994;DHT22;4532;50.886;4.700;2023-05-29T04:46:28;14.40;94.40
8994;DHT22;4532;50.886;4.700;2023-05-29T04:48:56;14.40;94.20
8994;DHT22;4532;50.886;4.700;2023-05-29T04:51:23;14.40;94.40
8994;DHT22;4532;50.886;4.700;2023-05-29T04:53:51;14.40;94.00
8994;DHT22;4532;50.886;4.700;2023-05-29T04:56:21;14.40;94.40
8994;DHT22;4532;50.886;4.700;2023-05-29T04:58:51;14.30;94.40
8994;DHT22;4532;50.886;4.700;2023-05-29T05:01:21;14.30;94.40
8994;DHT22;4532;50.886;4.700;2023-05-29T05:03:50;14.30;94.50
8994;DHT22;4532;50.886;4.700;2023-05-29T05:06:21;14.30;94.60
8994;DHT22;4532;50.886;4.700;2023-05-29T05:08:52;14.30;94.30
8994;DHT22;4532;50.886;4.700;2023-05-29T05:11:21;14.30;94.40
8994;DHT22;4532;50.886;4.700;2023-05-29T05:13:49;14.30;94.30
8994;DHT22;4532;50.886;4.700;2023-05-29T05:16:21;14.30;93.90
8994;DHT22;4532;50.886;4.700;2023-05-29T05:18:50;14.30;94.30
8994;DHT22;4532;50.886;4.700;2023-05-29T05:21:20;14.30;94.40
8994;DHT22;4532;50.886;4.700;2023-05-29T05:23:47;14.20;95.00
8994;DHT22;4532;50.886;4.700;2023-05-29T05:26:24;14.20;94.50
8994;DHT22;4532;50.886;4.700;2023-05-29T05:28:54;14.20;94.50
8994;DHT22;4532;50.886;4.700;2023-05-29T05:31:21;14.20;94.80
8994;DHT22;4532;50.886;4.700;2023-05-29T05:33:49;14.30;94.90
8994;DHT22;4532;50.886;4.700;2023-05-29T05:36:16;14.30;94.80
8994;DHT22;4532;50.886;4.700;2023-05-29T05:38:43;14.30;94.70
8994;DHT22;4532;50.886;4.700;2023-05-29T05:41:10;14.30;94.40
8994;DHT22;4532;50.886;4.700;2023-05-29T05:43:38;14.40;94.50
8994;DHT22;4532;50.886;4.700;2023-05-29T05:46:10;14.40;94.60
8994;DHT22;4532;50.886;4.700;2023-05-29T05:48:43;14.40;94.30
8994;DHT22;4532;50.886;4.700;2023-05-29T05:51:12;14.50;94.50
8994;DHT22;4532;50.886;4.700;2023-05-29T05:53:42;14.50;94.40
8994;DHT22;4532;50.886;4.700;2023-05-29T05:56:12;14.50;94.40
8994;DHT22;4532;50.886;4.700;2023-05-29T05:58:44;14.50;94.70
8994;DHT22;4532;50.886;4.700;2023-05-29T06:01:11;14.40;94.70
8994;DHT22;4532;50.886;4.700;2023-05-29T06:03:44;14.40;94.80
8994;DHT22;4532;50.886;4.700;2023-05-29T06:06:14;14.40;94.90
8994;DHT22;4532;50.886;4.700;2023-05-29T06:08:41;14.40;94.60
8994;DHT22;4532;50.886;4.700;2023-05-29T06:11:12;14.40;95.00
8994;DHT22;4532;50.886;4.700;2023-05-29T06:13:42;14.40;95.00
8994;DHT22;4532;50.886;4.700;2023-05-29T06:16:09;14.40;94.90
8994;DHT22;4532;50.886;4.700;2023-05-29T06:18:41;14.30;95.40
8994;DHT22;4532;50.886;4.700;2023-05-29T06:21:12;14.40;94.90
8994;DHT22;4532;50.886;4.700;2023-05-29T06:23:42;14.40;95.30
8994;DHT22;4532;50.886;4.700;2023-05-29T06:26:14;14.50;95.20
8994;DHT22;4532;50.886;4.700;2023-05-29T06:28:44;14.50;95.30
8994;DHT22;4532;50.886;4.700;2023-05-29T06:31:14;14.50;95.30
8994;DHT22;4532;50.886;4.700;2023-05-29T06:33:41;14.60;95.30
8994;DHT22;4532;50.886;4.700;2023-05-29T06:36:10;14.70;95.30
8994;DHT22;4532;50.886;4.700;2023-05-29T06:38:38;14.70;95.30
8994;DHT22;4532;50.886;4.700;2023-05-29T06:41:05;14.80;95.30
8994;DHT22;4532;50.886;4.700;2023-05-29T06:43:32;14.80;95.70
8994;DHT22;4532;50.886;4.700;2023-05-29T06:46:00;14.80;95.80
8994;DHT22;4532;50.886;4.700;2023-05-29T06:48:33;14.70;95.80
8994;DHT22;4532;50.886;4.700;2023-05-29T06:51:04;14.80;95.40
8994;DHT22;4532;50.886;4.700;2023-05-29T06:53:41;14.90;95.30
8994;DHT22;4532;50.886;4.700;2023-05-29T06:56:13;15.00;95.30
8994;DHT22;4532;50.886;4.700;2023-05-29T06:58:43;15.00;95.80
8994;DHT22;4532;50.886;4.700;2023-05-29T07:01:12;15.00;95.30
8994;DHT22;4532;50.886;4.700;2023-05-29T07:03:40;15.10;95.30
8994;DHT22;4532;50.886;4.700;2023-05-29T07:06:09;15.20;95.50
8994;DHT22;4532;50.886;4.700;2023-05-29T07:08:39;15.20;95.50
8994;DHT22;4532;50.886;4.700;2023-05-29T07:11:09;15.20;95.60
8994;DHT22;4532;50.886;4.700;2023-05-29T07:13:36;15.30;95.50
8994;DHT22;4532;50.886;4.700;2023-05-29T07:16:03;15.30;95.20
8994;DHT22;4532;50.886;4.700;2023-05-29T07:18:52;15.30;95.20
8994;DHT22;4532;50.886;4.700;2023-05-29T07:21:21;15.40;95.20
8994;DHT22;4532;50.886;4.700;2023-05-29T07:23:48;15.50;95.20
8994;DHT22;4532;50.886;4.700;2023-05-29T07:26:16;15.50;95.20
8994;DHT22;4532;50.886;4.700;2023-05-29T07:28:48;15.60;95.20
8994;DHT22;4532;50.886;4.700;2023-05-29T07:31:15;15.70;95.30
8994;DHT22;4532;50.886;4.700;2023-05-29T07:33:44;15.70;95.10
8994;DHT22;4532;50.886;4.700;2023-05-29T07:36:14;15.70;95.30
8994;DHT22;4532;50.886;4.700;2023-05-29T07:38:41;15.70;95.10
8994;DHT22;4532;50.886;4.700;2023-05-29T07:41:11;15.60;95.50
8994;DHT22;4532;50.886;4.700;2023-05-29T07:43:40;15.70;95.20
8994;DHT22;4532;50.886;4.700;2023-05-29T07:46:13;15.80;95.30
8994;DHT22;4532;50.886;4.700;2023-05-29T07:48:43;15.80;95.40
8994;DHT22;4532;50.886;4.700;2023-05-29T07:51:10;15.90;95.50
8994;DHT22;4532;50.886;4.700;2023-05-29T07:53:40;15.80;95.40
8994;DHT22;4532;50.886;4.700;2023-05-29T07:56:09;15.90;95.60
8994;DHT22;4532;50.886;4.700;2023-05-29T07:58:43;15.90;95.40
8994;DHT22;4532;50.886;4.700;2023-05-29T08:01:11;15.90;95.40
8994;DHT22;4532;50.886;4.700;2023-05-29T08:03:42;15.90;95.60
8994;DHT22;4532;50.886;4.700;2023-05-29T08:06:10;16.00;95.40
8994;DHT22;4532;50.886;4.700;2023-05-29T08:08:41;16.00;95.30
8994;DHT22;4532;50.886;4.700;2023-05-29T08:11:10;16.10;95.50
8994;DHT22;4532;50.886;4.700;2023-05-29T08:13:37;16.20;95.30
8994;DHT22;4532;50.886;4.700;2023-05-29T08:16:09;16.20;95.40
8994;DHT22;4532;50.886;4.700;2023-05-29T08:18:43;16.20;95.30
8994;DHT22;4532;50.886;4.700;2023-05-29T08:21:10;16.30;95.30
8994;DHT22;4532;50.886;4.700;2023-05-29T08:23:38;16.40;95.40
8994;DHT22;4532;50.886;4.700;2023-05-29T08:26:08;16.50;95.40
8994;DHT22;4532;50.886;4.700;2023-05-29T08:28:38;16.60;95.50
8994;DHT22;4532;50.886;4.700;2023-05-29T08:31:08;16.70;95.50
8994;DHT22;4532;50.886;4.700;2023-05-29T08:33:36;16.80;95.50
8994;DHT22;4532;50.886;4.700;2023-05-29T08:36:04;16.80;95.40
8994;DHT22;4532;50.886;4.700;2023-05-29T08:38:36;16.80;95.40
8994;DHT22;4532;50.886;4.700;2023-05-29T08:41:07;16.90;95.70
8994;DHT22;4532;50.886;4.700;2023-05-29T08:43:37;17.00;95.40
8994;DHT22;4532;50.886;4.700;2023-05-29T08:46:10;17.00;95.40
8994;DHT22;4532;50.886;4.700;2023-05-29T08:48:45;17.00;95.50
8994;DHT22;4532;50.886;4.700;2023-05-29T08:51:20;17.10;95.30
8994;DHT22;4532;50.886;4.700;2023-05-29T08:53:56;17.10;95.40
8994;DHT22;4532;50.886;4.700;2023-05-29T08:56:27;17.00;95.40
8994;DHT22;4532;50.886;4.700;2023-05-29T08:59:01;17.00;95.40
8994;DHT22;4532;50.886;4.700;2023-05-29T09:01:36;17.00;95.50
8994;DHT22;4532;50.886;4.700;2023-05-29T09:04:09;17.00;95.60
8994;DHT22;4532;50.886;4.700;2023-05-29T09:06:38;17.10;95.60
8994;DHT22;4532;50.886;4.700;2023-05-29T09:09:11;17.20;95.50
8994;DHT22;4532;50.886;4.700;2023-05-29T09:11:40;17.20;95.50
8994;DHT22;4532;50.886;4.700;2023-05-29T09:14:36;17.30;95.50
8994;DHT22;4532;50.886;4.700;2023-05-29T09:17:04;17.30;95.50
8994;DHT22;4532;50.886;4.700;2023-05-29T09:19:33;17.40;95.40
8994;DHT22;4532;50.886;4.700;2023-05-29T09:22:06;17.50;95.40
8994;DHT22;4532;50.886;4.700;2023-05-29T09:24:37;17.50;95.40
8994;DHT22;4532;50.886;4.700;2023-05-29T09:27:09;17.50;95.40
8994;DHT22;4532;50.886;4.700;2023-05-29T09:29:48;17.50;95.40
8994;DHT22;4532;50.886;4.700;2023-05-29T09:32:18;17.60;95.20
8994;DHT22;4532;50.886;4.700;2023-05-29T09:34:46;17.60;95.20
8994;DHT22;4532;50.886;4.700;2023-05-29T09:37:13;17.60;95.20
8994;DHT22;4532;50.886;4.700;2023-05-29T09:39:48;17.60;95.30
8994;DHT22;4532;50.886;4.700;2023-05-29T09:42:24;17.60;95.30
8994;DHT22;4532;50.886;4.700;2023-05-29T09:44:52;17.70;95.30
8994;DHT22;4532;50.886;4.700;2023-05-29T09:47:22;17.80;95.40
8994;DHT22;4532;50.886;4.700;2023-05-29T09:49:50;17.80;95.30
8994;DHT22;4532;50.886;4.700;2023-05-29T09:52:21;17.90;95.30
8994;DHT22;4532;50.886;4.700;2023-05-29T09:54:50;18.00;95.30
8994;DHT22;4532;50.886;4.700;2023-05-29T09:57:18;18.10;95.40
8994;DHT22;4532;50.886;4.700;2023-05-29T09:59:47;18.10;95.30
8994;DHT22;4532;50.886;4.700;2023-05-29T10:02:23;18.20;95.20
8994;DHT22;4532;50.886;4.700;2023-05-29T10:04:54;18.20;95.10
8994;DHT22;4532;50.886;4.700;2023-05-29T10:07:26;18.20;95.10
8994;DHT22;4532;50.886;4.700;2023-05-29T10:10:00;18.10;95.00
8994;DHT22;4532;50.886;4.700;2023-05-29T10:12:37;18.20;95.10
8994;DHT22;4532;50.886;4.700;2023-05-29T10:15:11;18.20;95.10
8994;DHT22;4532;50.886;4.700;2023-05-29T10:17:53;18.20;94.80
8994;DHT22;4532;50.886;4.700;2023-05-29T10:20:23;18.30;95.10
8994;DHT22;4532;50.886;4.700;2023-05-29T10:22:56;18.30;94.90
8994;DHT22;4532;50.886;4.700;2023-05-29T10:25:27;18.40;95.10
8994;DHT22;4532;50.886;4.700;2023-05-29T10:28:02;18.40;95.00
8994;DHT22;4532;50.886;4.700;2023-05-29T10:35:46;18.60;95.10
8994;DHT22;4532;50.886;4.700;2023-05-29T10:38:16;18.60;95.10
8994;DHT22;4532;50.886;4.700;2023-05-29T10:40:47;18.70;94.90
8994;DHT22;4532;50.886;4.700;2023-05-29T10:43:35;18.70;95.00
8994;DHT22;4532;50.886;4.700;2023-05-29T10:46:04;18.70;94.60
8994;DHT22;4532;50.886;4.700;2023-05-29T10:48:38;18.60;94.50
8994;DHT22;4532;50.886;4.700;2023-05-29T10:51:06;18.70;94.80
8994;DHT22;4532;50.886;4.700;2023-05-29T10:53:40;18.60;94.60
8994;DHT22;4532;50.886;4.700;2023-05-29T10:56:16;18.60;94.60
8994;DHT22;4532;50.886;4.700;2023-05-29T10:58:54;18.70;94.70
8994;DHT22;4532;50.886;4.700;2023-05-29T11:01:24;18.80;94.50
8994;DHT22;4532;50.886;4.700;2023-05-29T11:06:45;18.90;94.90
8994;DHT22;4532;50.886;4.700;2023-05-29T11:09:36;19.00;94.80
8994;DHT22;4532;50.886;4.700;2023-05-29T11:12:17;19.00;94.40
8994;DHT22;4532;50.886;4.700;2023-05-29T11:20:13;19.20;94.40
8994;DHT22;4532;50.886;4.700;2023-05-29T11:23:03;19.20;94.70
8994;DHT22;4532;50.886;4.700;2023-05-29T11:25:34;19.30;94.80
8994;DHT22;4532;50.886;4.700;2023-05-29T11:28:03;19.40;94.80
8994;DHT22;4532;50.886;4.700;2023-05-29T11:30:50;19.50;94.60
8994;DHT22;4532;50.886;4.700;2023-05-29T11:33:27;19.50;94.40
8994;DHT22;4532;50.886;4.700;2023-05-29T11:36:00;19.50;94.40
8994;DHT22;4532;50.886;4.700;2023-05-29T11:38:30;19.60;94.60
8994;DHT22;4532;50.886;4.700;2023-05-29T11:40:58;19.60;94.70
8994;DHT22;4532;50.886;4.700;2023-05-29T11:43:30;19.70;94.70
8994;DHT22;4532;50.886;4.700;2023-05-29T11:45:58;19.70;94.80
8994;DHT22;4532;50.886;4.700;2023-05-29T11:48:25;19.80;94.80
8994;DHT22;4532;50.886;4.700;2023-05-29T11:50:57;19.80;94.90
8994;DHT22;4532;50.886;4.700;2023-05-29T11:53:26;20.00;94.90
8994;DHT22;4532;50.886;4.700;2023-05-29T11:55:53;20.00;94.90
8994;DHT22;4532;50.886;4.700;2023-05-29T11:58:22;20.10;94.70
8994;DHT22;4532;50.886;4.700;2023-05-29T12:00:50;20.00;94.20
8994;DHT22;4532;50.886;4.700;2023-05-29T12:03:19;20.10;94.80
8994;DHT22;4532;50.886;4.700;2023-05-29T12:05:49;20.10;94.70
8994;DHT22;4532;50.886;4.700;2023-05-29T12:08:26;20.30;94.70
8994;DHT22;4532;50.886;4.700;2023-05-29T12:10:58;20.40;94.60
8994;DHT22;4532;50.886;4.700;2023-05-29T12:13:26;20.40;94.50
8994;DHT22;4532;50.886;4.700;2023-05-29T12:16:01;20.50;94.70
8994;DHT22;4532;50.886;4.700;2023-05-29T12:18:32;20.50;94.00
8994;DHT22;4532;50.886;4.700;2023-05-29T12:21:01;20.50;94.70
8994;DHT22;4532;50.886;4.700;2023-05-29T12:23:34;20.60;94.60
8994;DHT22;4532;50.886;4.700;2023-05-29T12:26:01;20.60;94.30
8994;DHT22;4532;50.886;4.700;2023-05-29T12:28:30;20.60;94.00
8994;DHT22;4532;50.886;4.700;2023-05-29T12:30:59;20.70;94.60
8994;DHT22;4532;50.886;4.700;2023-05-29T12:33:28;20.70;94.20
8994;DHT22;4532;50.886;4.700;2023-05-29T12:36:06;20.80;94.20
8994;DHT22;4532;50.886;4.700;2023-05-29T12:38:54;20.90;94.40
8994;DHT22;4532;50.886;4.700;2023-05-29T12:41:28;20.90;94.70
8994;DHT22;4532;50.886;4.700;2023-05-29T12:44:01;21.00;94.80
8994;DHT22;4532;50.886;4.700;2023-05-29T12:46:40;21.10;94.00
8994;DHT22;4532;50.886;4.700;2023-05-29T12:49:14;21.20;94.60
8994;DHT22;4532;50.886;4.700;2023-05-29T12:51:43;21.20;94.20
8994;DHT22;4532;50.886;4.700;2023-05-29T12:54:12;21.20;94.00
8994;DHT22;4532;50.886;4.700;2023-05-29T12:56:40;21.20;93.90
8994;DHT22;4532;50.886;4.700;2023-05-29T12:59:10;21.20;94.20
8994;DHT22;4532;50.886;4.700;2023-05-29T13:01:41;21.30;94.50
8994;DHT22;4532;50.886;4.700;2023-05-29T13:04:12;21.20;93.60
8994;DHT22;4532;50.886;4.700;2023-05-29T13:06:44;21.20;94.30
8994;DHT22;4532;50.886;4.700;2023-05-29T13:09:14;21.30;94.00
8994;DHT22;4532;50.886;4.700;2023-05-29T13:11:47;21.30;94.20
8994;DHT22;4532;50.886;4.700;2023-05-29T13:14:14;21.40;94.10
8994;DHT22;4532;50.886;4.700;2023-05-29T13:16:44;21.40;93.70
8994;DHT22;4532;50.886;4.700;2023-05-29T13:19:11;21.40;94.00
8994;DHT22;4532;50.886;4.700;2023-05-29T13:21:43;21.50;94.00
8994;DHT22;4532;50.886;4.700;2023-05-29T13:24:17;21.50;93.80
8994;DHT22;4532;50.886;4.700;2023-05-29T13:26:47;21.60;93.70
8994;DHT22;4532;50.886;4.700;2023-05-29T13:29:17;21.60;93.70
8994;DHT22;4532;50.886;4.700;2023-05-29T13:31:44;21.70;93.60
8994;DHT22;4532;50.886;4.700;2023-05-29T13:34:11;21.70;93.50
8994;DHT22;4532;50.886;4.700;2023-05-29T13:36:38;21.70;93.70
8994;DHT22;4532;50.886;4.700;2023-05-29T13:39:06;21.80;93.40
8994;DHT22;4532;50.886;4.700;2023-05-29T13:41:33;21.80;93.70
8994;DHT22;4532;50.886;4.700;2023-05-29T13:44:02;21.80;93.90
8994;DHT22;4532;50.886;4.700;2023-05-29T13:46:29;21.80;93.60
8994;DHT22;4532;50.886;4.700;2023-05-29T13:49:02;21.80;93.80
8994;DHT22;4532;50.886;4.700;2023-05-29T13:51:34;21.80;93.40
8994;DHT22;4532;50.886;4.700;2023-05-29T13:54:04;21.80;93.10
8994;DHT22;4532;50.886;4.700;2023-05-29T13:56:34;21.90;93.50
8994;DHT22;4532;50.886;4.700;2023-05-29T13:59:03;21.90;93.10
8994;DHT22;4532;50.886;4.700;2023-05-29T14:01:33;21.90;93.30
8994;DHT22;4532;50.886;4.700;2023-05-29T14:04:04;21.90;93.50
8994;DHT22;4532;50.886;4.700;2023-05-29T14:06:32;22.00;93.20
8994;DHT22;4532;50.886;4.700;2023-05-29T14:08:59;22.00;93.00
8994;DHT22;4532;50.886;4.700;2023-05-29T14:11:26;22.00;93.50
8994;DHT22;4532;50.886;4.700;2023-05-29T14:13:54;22.00;93.60
8994;DHT22;4532;50.886;4.700;2023-05-29T14:16:26;22.10;93.60
8994;DHT22;4532;50.886;4.700;2023-05-29T14:18:59;22.10;93.60
8994;DHT22;4532;50.886;4.700;2023-05-29T14:21:27;22.20;93.20
8994;DHT22;4532;50.886;4.700;2023-05-29T14:23:54;22.20;92.60
8994;DHT22;4532;50.886;4.700;2023-05-29T14:26:21;22.20;93.70
8994;DHT22;4532;50.886;4.700;2023-05-29T14:28:50;22.30;93.60
8994;DHT22;4532;50.886;4.700;2023-05-29T14:31:38;22.20;93.40
8994;DHT22;4532;50.886;4.700;2023-05-29T14:34:05;22.40;93.70
8994;DHT22;4532;50.886;4.700;2023-05-29T14:36:37;22.50;93.40
8994;DHT22;4532;50.886;4.700;2023-05-29T14:39:08;22.50;93.00
8994;DHT22;4532;50.886;4.700;2023-05-29T14:41:38;22.50;93.10
8994;DHT22;4532;50.886;4.700;2023-05-29T14:44:05;22.50;93.20
8994;DHT22;4532;50.886;4.700;2023-05-29T14:46:35;22.50;92.90
8994;DHT22;4532;50.886;4.700;2023-05-29T14:49:05;22.50;93.10
8994;DHT22;4532;50.886;4.700;2023-05-29T14:51:32;22.50;92.80
8994;DHT22;4532;50.886;4.700;2023-05-29T14:54:02;22.50;93.30
8994;DHT22;4532;50.886;4.700;2023-05-29T14:56:29;22.50;93.10
8994;DHT22;4532;50.886;4.700;2023-05-29T14:58:59;22.60;93.00
8994;DHT22;4532;50.886;4.700;2023-05-29T15:01:30;22.60;93.30
8994;DHT22;4532;50.886;4.700;2023-05-29T15:03:58;22.60;92.80
8994;DHT22;4532;50.886;4.700;2023-05-29T15:06:27;22.50;93.00
8994;DHT22;4532;50.886;4.700;2023-05-29T15:08:55;22.60;93.20
8994;DHT22;4532;50.886;4.700;2023-05-29T15:11:29;22.60;93.10
8994;DHT22;4532;50.886;4.700;2023-05-29T15:14:02;22.60;92.80
8994;DHT22;4532;50.886;4.700;2023-05-29T15:16:31;22.70;93.10
8994;DHT22;4532;50.886;4.700;2023-05-29T15:19:01;22.70;92.30
8994;DHT22;4532;50.886;4.700;2023-05-29T15:21:29;22.70;93.10
8994;DHT22;4532;50.886;4.700;2023-05-29T15:23:57;22.60;92.80
8994;DHT22;4532;50.886;4.700;2023-05-29T15:26:24;22.50;92.10
8994;DHT22;4532;50.886;4.700;2023-05-29T15:28:52;22.50;92.00
8994;DHT22;4532;50.886;4.700;2023-05-29T15:31:22;22.40;92.30
8994;DHT22;4532;50.886;4.700;2023-05-29T15:33:54;22.50;92.40
8994;DHT22;4532;50.886;4.700;2023-05-29T15:36:21;22.50;92.80
8994;DHT22;4532;50.886;4.700;2023-05-29T15:38:53;22.50;92.40
8994;DHT22;4532;50.886;4.700;2023-05-29T15:41:22;22.50;92.90
8994;DHT22;4532;50.886;4.700;2023-05-29T15:44:02;22.50;92.70
8994;DHT22;4532;50.886;4.700;2023-05-29T15:46:33;22.50;92.40
8994;DHT22;4532;50.886;4.700;2023-05-29T15:49:03;22.40;92.40
8994;DHT22;4532;50.886;4.700;2023-05-29T15:51:32;22.40;92.30
8994;DHT22;4532;50.886;4.700;2023-05-29T15:53:59;22.30;92.20
8994;DHT22;4532;50.886;4.700;2023-05-29T15:56:28;22.30;91.90
8994;DHT22;4532;50.886;4.700;2023-05-29T15:58:59;22.30;91.90
8994;DHT22;4532;50.886;4.700;2023-05-29T16:01:31;22.20;92.10
8994;DHT22;4532;50.886;4.700;2023-05-29T16:04:00;22.10;92.20
8994;DHT22;4532;50.886;4.700;2023-05-29T16:06:31;22.10;91.30
8994;DHT22;4532;50.886;4.700;2023-05-29T16:09:06;22.00;91.40
8994;DHT22;4532;50.886;4.700;2023-05-29T16:11:35;21.90;90.90
8994;DHT22;4532;50.886;4.700;2023-05-29T16:14:03;21.90;91.20
8994;DHT22;4532;50.886;4.700;2023-05-29T16:16:32;21.80;91.30
8994;DHT22;4532;50.886;4.700;2023-05-29T16:19:03;21.70;90.70
8994;DHT22;4532;50.886;4.700;2023-05-29T16:21:35;21.60;90.80
8994;DHT22;4532;50.886;4.700;2023-05-29T16:24:08;21.60;90.10
8994;DHT22;4532;50.886;4.700;2023-05-29T16:26:37;21.70;91.00
8994;DHT22;4532;50.886;4.700;2023-05-29T16:29:05;21.70;91.10
8994;DHT22;4532;50.886;4.700;2023-05-29T16:31:34;21.70;91.30
8994;DHT22;4532;50.886;4.700;2023-05-29T16:34:01;21.70;91.50
8994;DHT22;4532;50.886;4.700;2023-05-29T16:36:29;21.80;91.40
8994;DHT22;4532;50.886;4.700;2023-05-29T16:39:01;21.80;91.10